Time;durP1;ratioP1;P1;durP2;ratioP2;P2;SDS_P1;SDS_P2;PMS_P1;PMS_P2;Temp;Humidity;BMP_temperature;BMP_pressure;BME280_temperature;BME280_humidity;BME280_pressure;Samples;Min_cycle;Max_cycle;Signal;HPM_P1;HPM_P2
2024/01/27 00:01:22;;;;;;;19.40;2.40;;;;;;;2.98;100.00;99332.90;106158;1254;59386;-65
2024/01/27 00:04:09;;;;;;;19.00;3.00;;;;;;;2.95;100.00;99339.52;105789;1257;72669;-65
2024/01/27 00:06:56;;;;;;;13.40;2.30;;;;;;;2.92;100.00;99327.61;105839;1258;68586;-65
2024/01/27 00:09:43;;;;;;;17.30;2.20;;;;;;;2.89;100.00;99330.76;105904;1259;72084;-66
2024/01/27 00:12:30;;;;;;;20.20;3.10;;;;;;;2.86;100.00;99330.77;105477;1271;60243;-66
2024/01/27 00:15:18;;;;;;;18.70;2.50;;;;;;;2.84;100.00;99332.98;105786;1254;60524;-67
2024/01/27 00:18:05;;;;;;;18.20;2.60;;;;;;;2.83;100.00;99331.65;105871;1255;72828;-65
2024/01/27 00:20:52;;;;;;;16.70;3.20;;;;;;;2.81;100.00;99335.42;105840;1254;66801;-70
2024/01/27 00:23:40;;;;;;;15.50;2.80;;;;;;;2.80;100.00;99336.23;105782;1258;73309;-68
2024/01/27 00:26:27;;;;;;;16.60;2.40;;;;;;;2.76;100.00;99341.14;105838;1254;59186;-67
2024/01/27 00:29:15;;;;;;;17.70;3.30;;;;;;;2.74;100.00;99344.60;105949;1260;59231;-65
2024/01/27 00:32:02;;;;;;;15.50;3.00;;;;;;;2.70;100.00;99342.70;105595;1263;72742;-68
2024/01/27 00:34:50;;;;;;;16.30;2.40;;;;;;;2.66;100.00;99343.28;105894;1254;66937;-66
2024/01/27 00:37:37;;;;;;;12.60;2.20;;;;;;;2.59;100.00;99339.45;105954;1255;74053;-65
2024/01/27 00:40:23;;;;;;;10.10;1.70;;;;;;;2.55;100.00;99338.27;106130;1258;60429;-63
2024/01/27 00:43:11;;;;;;;13.60;2.20;;;;;;;2.52;100.00;99341.45;105822;1258;59241;-65
2024/01/27 00:45:58;;;;;;;13.90;2.00;;;;;;;2.50;100.00;99339.63;105980;1254;73454;-63
2024/01/27 00:48:44;;;;;;;10.70;1.90;;;;;;;2.47;100.00;99340.99;106039;1260;68346;-65
2024/01/27 00:51:32;;;;;;;18.50;2.80;;;;;;;2.46;100.00;99337.40;105707;1257;73097;-66
2024/01/27 00:54:19;;;;;;;13.00;2.90;;;;;;;2.43;100.00;99338.45;105793;1260;59361;-64
2024/01/27 00:57:06;;;;;;;15.60;2.20;;;;;;;2.41;100.00;99332.96;106023;1256;61606;-65
2024/01/27 00:59:53;;;;;;;14.50;2.50;;;;;;;2.41;100.00;99334.02;106031;1257;71764;-64
2024/01/27 01:02:41;;;;;;;12.20;1.70;;;;;;;2.40;100.00;99323.36;105961;1257;67720;-66
2024/01/27 01:05:28;;;;;;;11.00;1.70;;;;;;;2.39;100.00;99316.59;105869;1255;74140;-65
2024/01/27 01:08:15;;;;;;;11.60;2.00;;;;;;;2.40;100.00;99323.59;105751;1255;59352;-64
2024/01/27 01:11:02;;;;;;;12.80;2.10;;;;;;;2.39;100.00;99324.30;106004;1254;61871;-64
2024/01/27 01:13:49;;;;;;;11.40;2.00;;;;;;;2.36;100.00;99324.61;105909;1257;71620;-65
2024/01/27 01:16:35;;;;;;;10.20;2.50;;;;;;;2.36;100.00;99325.50;106740;1254;69228;-63
2024/01/27 01:19:22;;;;;;;8.90;2.00;;;;;;;2.35;100.00;99317.69;106879;1257;73121;-63
2024/01/27 01:22:09;;;;;;;7.70;1.60;;;;;;;2.34;100.00;99321.95;106607;1255;59356;-67
2024/01/27 01:24:59;;;;;;;8.70;1.80;;;;;;;2.34;100.00;99321.23;105792;1258;1004894;-65
2024/01/27 01:27:48;;;;;;;9.50;2.00;;;;;;;2.33;100.00;99318.30;105870;1254;72784;-63
2024/01/27 01:30:35;;;;;;;9.20;1.80;;;;;;;2.33;100.00;99317.98;105839;1257;69380;-64
2024/01/27 01:33:22;;;;;;;6.40;1.30;;;;;;;2.32;100.00;99318.40;105788;1260;73040;-64
2024/01/27 01:36:10;;;;;;;9.70;1.80;;;;;;;2.29;100.00;99314.33;105801;1267;59333;-64
2024/01/27 01:38:57;;;;;;;9.80;1.90;;;;;;;2.27;100.00;99310.60;105622;1255;60165;-67
2024/01/27 01:41:44;;;;;;;8.30;1.90;;;;;;;2.26;100.00;99310.67;105931;1255;72849;-65
2024/01/27 01:44:34;;;;;;;11.10;2.00;;;;;;;2.22;100.00;99314.17;105962;1254;66888;-64
2024/01/27 01:47:22;;;;;;;9.40;1.50;;;;;;;2.19;100.00;99306.65;105912;1254;72873;-66
2024/01/27 01:50:10;;;;;;;7.80;1.50;;;;;;;2.15;100.00;99304.77;102914;1258;1003725;-64
2024/01/27 01:52:57;;;;;;;9.90;1.50;;;;;;;2.13;100.00;99300.02;105981;1260;59584;-65
2024/01/27 01:55:46;;;;;;;8.60;1.50;;;;;;;2.11;100.00;99301.87;105691;1260;72388;-64
2024/01/27 01:58:34;;;;;;;7.90;1.30;;;;;;;2.09;100.00;99296.41;105406;1254;66176;-64
2024/01/27 02:01:23;;;;;;;9.20;1.70;;;;;;;2.02;100.00;99293.59;105910;1258;74016;-66
2024/01/27 02:04:11;;;;;;;5.70;1.10;;;;;;;1.97;100.00;99296.30;106130;1255;60225;-64
2024/01/27 02:06:58;;;;;;;8.20;1.30;;;;;;;1.93;100.00;99294.28;105859;1257;60780;-67
2024/01/27 02:09:45;;;;;;;8.50;1.50;;;;;;;1.87;100.00;99295.98;106072;1254;72700;-65
2024/01/27 02:12:31;;;;;;;8.00;1.50;;;;;;;1.84;100.00;99295.27;105871;1257;68431;-65
2024/01/27 02:15:20;;;;;;;6.40;1.20;;;;;;;1.80;100.00;99292.52;105114;1260;1003361;-64
2024/01/27 02:18:07;;;;;;;7.80;1.20;;;;;;;1.76;100.00;99288.17;105764;1261;59356;-65
2024/01/27 02:20:54;;;;;;;7.90;1.80;;;;;;;1.74;100.00;99292.48;105806;1257;60820;-66
2024/01/27 02:23:41;;;;;;;6.00;1.30;;;;;;;1.69;100.00;99289.59;105793;1254;72760;-63
2024/01/27 02:26:28;;;;;;;8.00;1.40;;;;;;;1.64;100.00;99286.20;105728;1257;69168;-65
2024/01/27 02:29:15;;;;;;;6.10;1.30;;;;;;;1.60;100.00;99296.73;105787;1257;74258;-64
2024/01/27 02:32:03;;;;;;;8.20;1.70;;;;;;;1.54;100.00;99296.16;105755;1257;59310;-63
2024/01/27 02:34:50;;;;;;;9.80;1.50;;;;;;;1.51;100.00;99296.11;105658;1254;61872;-64
2024/01/27 02:37:37;;;;;;;6.90;1.60;;;;;;;1.49;100.00;99295.21;106042;1255;73657;-63
2024/01/27 02:40:24;;;;;;;5.90;1.60;;;;;;;1.45;100.00;99299.39;106047;1254;67197;-64
2024/01/27 02:43:11;;;;;;;8.30;1.50;;;;;;;1.44;100.00;99304.75;106517;1254;71067;-63
2024/01/27 02:45:58;;;;;;;7.00;1.20;;;;;;;1.40;100.00;99298.98;105778;1259;60373;-65
2024/01/27 02:48:46;;;;;;;10.60;2.30;;;;;;;1.34;100.00;99298.74;105969;1254;59852;-63
2024/01/27 02:51:32;;;;;;;7.10;1.50;;;;;;;1.31;100.00;99299.24;105966;1254;72460;-63
2024/01/27 02:54:20;;;;;;;7.90;1.50;;;;;;;1.27;100.00;99298.77;105847;1254;68451;-65
2024/01/27 02:57:07;;;;;;;6.30;1.30;;;;;;;1.25;100.00;99298.39;105443;1254;71595;-64
2024/01/27 02:59:53;;;;;;;7.70;1.60;;;;;;;1.25;100.00;99305.34;105707;1260;59218;-67
2024/01/27 03:02:41;;;;;;;5.90;1.20;;;;;;;1.25;100.00;99310.23;106068;1258;59320;-63
2024/01/27 03:05:27;;;;;;;6.20;1.60;;;;;;;1.26;100.00;99307.92;105837;1255;74040;-65
2024/01/27 03:08:14;;;;;;;8.10;1.90;;;;;;;1.28;100.00;99308.48;106204;1254;66822;-65
2024/01/27 03:11:01;;;;;;;8.70;1.70;;;;;;;1.31;100.00;99310.98;105967;1260;74102;-65
2024/01/27 03:13:48;;;;;;;7.90;1.60;;;;;;;1.33;100.00;99313.13;105836;1260;59112;-65
2024/01/27 03:16:35;;;;;;;7.00;1.50;;;;;;;1.37;100.00;99319.39;105976;1258;61427;-64
2024/01/27 03:19:23;;;;;;;4.90;1.30;;;;;;;1.28;100.00;99300.98;106016;1254;73372;-65
2024/01/27 03:22:11;;;;;;;6.20;1.20;;;;;;;1.21;100.00;99295.08;105911;1254;68456;-64
2024/01/27 03:24:58;;;;;;;5.40;1.30;;;;;;;1.40;100.00;99328.37;105935;1254;70803;-65
2024/01/27 03:27:45;;;;;;;6.30;1.50;;;;;;;1.40;100.00;99335.15;105802;1254;59382;-65
2024/01/27 03:30:33;;;;;;;8.30;1.50;;;;;;;1.40;100.00;99340.59;105999;1255;60658;-64
2024/01/27 03:33:19;;;;;;;6.40;1.40;;;;;;;1.40;100.00;99343.73;105975;1258;73630;-64
2024/01/27 03:36:12;;;;;;;7.70;1.80;;;;;;;1.40;100.00;99345.83;105773;1257;68586;-63
2024/01/27 03:39:00;;;;;;;7.10;1.60;;;;;;;1.38;100.00;99345.24;105969;1260;73214;-64
2024/01/27 03:41:47;;;;;;;8.90;2.00;;;;;;;1.38;100.00;99347.85;105929;1254;59887;-63
2024/01/27 03:44:34;;;;;;;6.60;1.60;;;;;;;1.38;100.00;99353.27;106140;1254;59240;-64
2024/01/27 03:47:21;;;;;;;6.40;1.50;;;;;;;1.40;100.00;99359.98;106151;1254;73038;-64
2024/01/27 03:50:08;;;;;;;5.60;1.20;;;;;;;1.43;100.00;99363.36;105955;1254;67156;-64
2024/01/27 03:52:55;;;;;;;5.50;1.20;;;;;;;1.43;100.00;99366.64;105994;1254;73927;-63
2024/01/27 03:55:42;;;;;;;6.00;1.70;;;;;;;1.43;100.00;99367.19;105810;1258;60118;-65
2024/01/27 03:58:29;;;;;;;7.00;1.90;;;;;;;1.45;100.00;99369.17;105878;1257;59568;-66
2024/01/27 04:01:16;;;;;;;6.80;1.90;;;;;;;1.46;100.00;99374.54;105686;1257;70545;-64
2024/01/27 04:04:03;;;;;;;6.80;1.90;;;;;;;1.47;100.00;99378.01;106177;1255;69203;-66
2024/01/27 04:06:51;;;;;;;7.00;2.00;;;;;;;1.47;100.00;99381.98;106028;1254;74220;-64
2024/01/27 04:09:38;;;;;;;6.70;1.50;;;;;;;1.47;100.00;99392.29;106027;1254;59340;-65
2024/01/27 04:12:25;;;;;;;5.80;1.60;;;;;;;1.47;100.00;99393.02;106089;1255;60336;-65
2024/01/27 04:15:13;;;;;;;6.90;1.50;;;;;;;1.47;100.00;99401.23;105903;1255;72605;-63
2024/01/27 04:18:00;;;;;;;6.00;1.70;;;;;;;1.47;100.00;99413.81;105781;1257;68188;-63
2024/01/27 04:20:49;;;;;;;5.40;1.20;;;;;;;1.47;100.00;99412.45;105677;1255;74817;-64
2024/01/27 04:23:36;;;;;;;6.30;1.60;;;;;;;1.45;100.00;99417.42;105764;1260;59656;-66
2024/01/27 04:26:23;;;;;;;6.20;1.30;;;;;;;1.46;100.00;99427.50;106096;1253;61158;-65
2024/01/27 04:29:14;;;;;;;5.50;1.10;;;;;;;1.47;100.00;99427.44;105817;1253;72708;-67
2024/01/27 04:32:01;;;;;;;5.40;1.40;;;;;;;1.48;100.00;99433.90;105797;1254;67062;-65
2024/01/27 04:34:48;;;;;;;6.60;1.60;;;;;;;1.48;100.00;99439.30;105753;1254;73926;-62
2024/01/27 04:37:35;;;;;;;5.10;1.30;;;;;;;1.48;100.00;99443.67;105852;1253;59236;-63
2024/01/27 04:40:22;;;;;;;4.80;1.30;;;;;;;1.46;100.00;99452.36;105978;1253;59722;-65
2024/01/27 04:43:09;;;;;;;4.40;1.10;;;;;;;1.43;100.00;99455.81;106117;1253;72741;-64
2024/01/27 04:45:56;;;;;;;3.50;0.90;;;;;;;1.39;100.00;99461.09;105984;1254;68668;-65
2024/01/27 04:48:43;;;;;;;3.80;0.90;;;;;;;1.37;100.00;99468.33;105761;1254;73281;-68
2024/01/27 04:51:32;;;;;;;3.50;0.80;;;;;;;1.34;100.00;99471.08;105875;1259;59295;-64
2024/01/27 04:54:20;;;;;;;3.00;0.80;;;;;;;1.30;100.00;99477.79;105821;1253;61700;-64
2024/01/27 04:57:07;;;;;;;4.00;0.90;;;;;;;1.26;100.00;99484.60;105958;1253;73739;-65
2024/01/27 04:59:54;;;;;;;3.30;1.00;;;;;;;1.27;100.00;99489.45;105862;1257;68533;-66
2024/01/27 05:02:42;;;;;;;4.30;1.10;;;;;;;1.24;100.00;99496.78;105989;1257;73025;-66
2024/01/27 05:05:29;;;;;;;3.40;0.90;;;;;;;1.20;100.00;99504.98;105910;1253;59641;-64
2024/01/27 05:08:19;;;;;;;3.50;0.90;;;;;;;1.15;100.00;99508.36;106222;1253;60061;-64
2024/01/27 05:11:07;;;;;;;3.70;1.00;;;;;;;1.12;100.00;99518.63;105864;1253;73496;-64
2024/01/27 05:13:54;;;;;;;3.00;0.80;;;;;;;1.09;100.00;99523.70;104972;1257;1003020;-66
2024/01/27 05:16:41;;;;;;;3.40;0.90;;;;;;;1.06;100.00;99528.73;105929;1254;74216;-65
2024/01/27 05:19:28;;;;;;;4.50;1.20;;;;;;;1.01;100.00;99533.82;105946;1259;59257;-63
2024/01/27 05:22:15;;;;;;;4.30;1.10;;;;;;;0.98;100.00;99543.39;105787;1255;60910;-64
2024/01/27 05:25:04;;;;;;;3.60;1.00;;;;;;;0.96;100.00;99554.31;105721;1254;73704;-64
2024/01/27 05:27:52;;;;;;;3.60;1.00;;;;;;;0.94;100.00;99559.85;105833;1254;69203;-64
2024/01/27 05:30:39;;;;;;;3.60;1.00;;;;;;;0.92;100.00;99571.48;106001;1254;74274;-65
2024/01/27 05:33:26;;;;;;;3.60;0.90;;;;;;;0.90;100.00;99576.97;105997;1257;59352;-65
2024/01/27 05:36:13;;;;;;;3.20;0.80;;;;;;;0.90;100.00;99584.15;106020;1254;60842;-65
2024/01/27 05:39:00;;;;;;;4.00;1.10;;;;;;;0.88;100.00;99591.73;105965;1257;71562;-64
2024/01/27 05:41:46;;;;;;;4.30;1.10;;;;;;;0.88;100.00;99602.90;105638;1257;69600;-67
2024/01/27 05:44:33;;;;;;;3.00;0.70;;;;;;;0.87;100.00;99609.77;105480;1257;71856;-65
2024/01/27 05:47:20;;;;;;;3.80;0.90;;;;;;;0.87;100.00;99615.89;105736;1258;59263;-65
2024/01/27 05:50:08;;;;;;;4.40;1.00;;;;;;;0.88;100.00;99624.95;105684;1257;59617;-64
2024/01/27 05:52:54;;;;;;;4.30;1.20;;;;;;;0.89;100.00;99632.05;105616;1258;72745;-65
2024/01/27 05:55:42;;;;;;;4.10;1.10;;;;;;;0.90;100.00;99640.22;105506;1257;67230;-65
2024/01/27 05:58:28;;;;;;;3.10;0.80;;;;;;;0.90;100.00;99651.73;105378;1262;73575;-65
2024/01/27 06:01:19;;;;;;;4.90;1.00;;;;;;;0.93;100.00;99651.44;105761;1257;59253;-65
2024/01/27 06:04:05;;;;;;;3.70;1.10;;;;;;;0.97;100.00;99658.75;105267;1258;59558;-65
2024/01/27 06:06:52;;;;;;;3.80;1.00;;;;;;;1.01;100.00;99667.30;105753;1256;73825;-64
2024/01/27 06:09:39;;;;;;;3.90;1.00;;;;;;;1.05;100.00;99683.21;105517;1260;68546;-65
2024/01/27 06:12:27;;;;;;;3.30;0.80;;;;;;;1.10;100.00;99691.39;105739;1254;74432;-65
2024/01/27 06:15:15;;;;;;;3.60;1.00;;;;;;;1.14;100.00;99700.11;106113;1259;59809;-64
2024/01/27 06:18:02;;;;;;;4.20;1.00;;;;;;;1.19;100.00;99709.69;105416;1253;60968;-66
2024/01/27 06:20:50;;;;;;;3.70;1.10;;;;;;;1.22;100.00;99716.71;105574;1259;73850;-66
2024/01/27 06:23:36;;;;;;;3.80;1.00;;;;;;;1.25;100.00;99726.02;105479;1260;69257;-67
2024/01/27 06:26:23;;;;;;;4.80;1.30;;;;;;;1.27;100.00;99735.34;105607;1261;73365;-68
2024/01/27 06:29:10;;;;;;;4.50;1.00;;;;;;;1.29;100.00;99744.20;105615;1261;60456;-65
2024/01/27 06:31:57;;;;;;;3.80;1.10;;;;;;;1.31;100.00;99753.90;105470;1258;60090;-68
2024/01/27 06:34:44;;;;;;;4.20;1.10;;;;;;;1.32;100.00;99769.05;105560;1257;71606;-66
2024/01/27 06:37:31;;;;;;;4.20;0.90;;;;;;;1.31;100.00;99781.51;105692;1256;67720;-64
2024/01/27 06:40:18;;;;;;;3.20;0.80;;;;;;;1.31;100.00;99792.02;105523;1259;71966;-65
2024/01/27 06:43:05;;;;;;;4.10;1.00;;;;;;;1.27;100.00;99795.48;105523;1260;59402;-66
2024/01/27 06:45:52;;;;;;;3.90;1.00;;;;;;;1.26;100.00;99800.27;105658;1261;60943;-67
2024/01/27 06:48:39;;;;;;;4.20;1.00;;;;;;;1.26;100.00;99814.79;105834;1260;72660;-64
2024/01/27 06:51:26;;;;;;;3.90;1.00;;;;;;;1.25;100.00;99826.70;107128;1253;69384;-64
2024/01/27 06:54:14;;;;;;;3.90;1.10;;;;;;;1.22;100.00;99834.38;107528;1253;72867;-65
2024/01/27 06:57:01;;;;;;;3.40;0.90;;;;;;;1.21;100.00;99836.14;106112;1254;59346;-65
2024/01/27 06:59:55;;;;;;;4.90;1.20;;;;;;;1.19;100.00;99840.94;105848;1257;59372;-69
2024/01/27 07:02:43;;;;;;;5.50;1.10;;;;;;;1.17;100.00;99847.46;106003;1254;72832;-65
2024/01/27 07:05:29;;;;;;;4.50;1.20;;;;;;;1.16;100.00;99852.59;105986;1256;68216;-69
2024/01/27 07:08:17;;;;;;;3.90;0.80;;;;;;;1.17;100.00;99860.60;105731;1257;74240;-67
2024/01/27 07:11:03;;;;;;;3.80;1.10;;;;;;;1.18;100.00;99868.23;105432;1253;59359;-66
2024/01/27 07:13:50;;;;;;;3.30;0.90;;;;;;;1.18;100.00;99870.86;105550;1259;60606;-68
2024/01/27 07:16:37;;;;;;;3.70;1.10;;;;;;;1.22;100.00;99875.08;106019;1257;73909;-71
2024/01/27 07:19:23;;;;;;;3.80;1.10;;;;;;;1.23;100.00;99889.70;105895;1253;67626;-65
2024/01/27 07:22:11;;;;;;;4.00;1.00;;;;;;;1.23;100.00;99892.88;107727;1253;73990;-65
2024/01/27 07:24:57;;;;;;;4.10;1.00;;;;;;;1.22;100.00;99902.86;108248;1253;59247;-66
2024/01/27 07:27:44;;;;;;;3.80;1.00;;;;;;;1.24;100.00;99908.02;105988;1253;59253;-66
2024/01/27 07:30:31;;;;;;;4.00;1.10;;;;;;;1.24;100.00;99912.03;106176;1253;71581;-65
2024/01/27 07:33:18;;;;;;;6.80;2.20;;;;;;;1.26;100.00;99924.70;105767;1253;68496;-69
2024/01/27 07:36:05;;;;;;;4.70;1.30;;;;;;;1.28;100.00;99926.20;105720;1257;74110;-67
2024/01/27 07:38:53;;;;;;;4.60;1.20;;;;;;;1.30;100.00;99932.08;105741;1253;59343;-67
2024/01/27 07:41:40;;;;;;;4.20;1.20;;;;;;;1.31;100.00;99938.67;105661;1254;61710;-70
2024/01/27 07:44:27;;;;;;;4.50;1.30;;;;;;;1.32;100.00;99951.05;106018;1254;71508;-64
2024/01/27 07:47:14;;;;;;;4.90;1.30;;;;;;;1.31;100.00;99959.66;106103;1254;66589;-66
2024/01/27 07:50:01;;;;;;;5.80;1.30;;;;;;;1.32;100.00;99970.79;106922;1253;73183;-64
2024/01/27 07:52:48;;;;;;;4.00;1.00;;;;;;;1.34;100.00;99983.48;106033;1254;59430;-67
2024/01/27 07:55:35;;;;;;;6.30;1.30;;;;;;;0.91;100.00;99923.38;105850;1258;59568;-69
2024/01/27 07:58:22;;;;;;;5.00;1.50;;;;;;;1.36;100.00;99998.80;106081;1254;71601;-64
2024/01/27 08:01:09;;;;;;;4.40;1.20;;;;;;;1.38;100.00;100007.10;105511;1253;68520;-65
2024/01/27 08:03:56;;;;;;;4.30;1.20;;;;;;;1.40;100.00;100015.41;106382;1253;74312;-68
2024/01/27 08:06:51;;;;;;;5.30;1.60;;;;;;;1.42;100.00;100020.39;106197;1259;59670;-66
2024/01/27 08:09:38;;;;;;;4.80;1.40;;;;;;;1.43;100.00;100028.74;106295;1257;59588;-67
2024/01/27 08:12:26;;;;;;;5.30;1.50;;;;;;;1.42;100.00;100041.54;105927;1254;71182;-64
2024/01/27 08:15:13;;;;;;;4.00;1.20;;;;;;;1.42;100.00;100052.04;105608;1257;68468;-66
2024/01/27 08:18:00;;;;;;;4.30;1.10;;;;;;;1.38;100.00;100057.79;105658;1259;73210;-67
2024/01/27 08:20:48;;;;;;;4.90;1.20;;;;;;;1.34;100.00;100063.01;105839;1258;59401;-66
2024/01/27 08:23:35;;;;;;;4.70;1.40;;;;;;;1.32;100.00;100069.58;106083;1253;59262;-65
2024/01/27 08:26:23;;;;;;;4.60;1.30;;;;;;;1.29;100.00;100074.95;105937;1254;72452;-64
2024/01/27 08:29:10;;;;;;;4.60;1.20;;;;;;;1.23;100.00;100081.81;105971;1253;67918;-64
2024/01/27 08:31:57;;;;;;;4.40;1.10;;;;;;;1.16;100.00;100092.02;105770;1257;73122;-65
2024/01/27 08:34:44;;;;;;;7.90;2.30;;;;;;;1.11;100.00;100096.25;105598;1254;60307;-64
2024/01/27 08:37:32;;;;;;;5.60;1.40;;;;;;;1.06;100.00;100107.61;105800;1253;59425;-66
2024/01/27 08:40:19;;;;;;;4.30;1.30;;;;;;;1.03;100.00;100114.55;105815;1253;73688;-64
2024/01/27 08:43:06;;;;;;;5.50;1.60;;;;;;;0.94;100.00;100123.42;105795;1254;68483;-64
2024/01/27 08:45:54;;;;;;;5.10;1.20;;;;;;;0.89;100.00;100135.00;106073;1253;71183;-67
2024/01/27 08:48:41;;;;;;;6.60;1.60;;;;;;;0.83;100.00;100144.62;105853;1254;59449;-65
2024/01/27 08:51:28;;;;;;;5.50;1.50;;;;;;;0.80;100.00;100154.52;105829;1254;61134;-65
2024/01/27 08:54:15;;;;;;;5.60;1.40;;;;;;;0.79;100.00;100154.35;105543;1257;73902;-64
2024/01/27 08:57:03;;;;;;;6.40;1.90;;;;;;;0.78;100.00;100163.69;105928;1257;67097;-66
2024/01/27 08:59:50;;;;;;;6.20;1.60;;;;;;;0.77;100.00;100171.23;105639;1253;201134;-67
2024/01/27 09:02:37;;;;;;;6.70;1.70;;;;;;;0.78;100.00;100182.18;105644;1254;59470;-67
2024/01/27 09:05:24;;;;;;;6.10;1.50;;;;;;;0.77;100.00;100186.42;105429;1253;61900;-69
2024/01/27 09:08:13;;;;;;;6.80;2.10;;;;;;;0.75;100.00;100191.91;105950;1253;71348;-65
2024/01/27 09:11:02;;;;;;;5.60;1.80;;;;;;;0.72;100.00;100197.06;105944;1253;68309;-63
2024/01/27 09:13:51;;;;;;;6.40;1.90;;;;;;;0.69;100.00;100197.69;105840;1257;74079;-65
2024/01/27 09:16:40;;;;;;;5.80;1.80;;;;;;;0.68;100.00;100207.52;105933;1257;59282;-62
2024/01/27 09:19:26;;;;;;;7.10;1.90;;;;;;;0.68;100.00;100214.31;106051;1253;60759;-65
2024/01/27 09:22:14;;;;;;;6.90;1.80;;;;;;;0.71;100.00;100222.95;105649;1257;73612;-65
2024/01/27 09:25:01;;;;;;;5.80;1.80;;;;;;;0.72;100.00;100226.75;105888;1259;68215;-65
2024/01/27 09:27:48;;;;;;;5.50;1.70;;;;;;;0.76;100.00;100235.71;105998;1253;74005;-64
2024/01/27 09:30:35;;;;;;;7.10;1.90;;;;;;;0.80;100.00;100241.52;105754;1254;59377;-65
2024/01/27 09:33:26;;;;;;;6.20;1.70;;;;;;;0.82;100.00;100247.20;106002;1255;60169;-65
2024/01/27 09:42:55;;;;;;;6.60;1.60;;;;;;;0.96;100.00;100264.18;102545;1295;600469;-65
2024/01/27 09:45:43;;;;;;;8.40;1.90;;;;;;;0.96;100.00;100269.77;105128;1267;61027;-66
2024/01/27 09:48:35;;;;;;;7.20;2.40;;;;;;;0.99;100.00;100273.34;104983;1269;61409;-62
2024/01/27 09:51:25;;;;;;;6.40;1.80;;;;;;;1.01;100.00;100282.18;104828;1267;72210;-64
2024/01/27 09:54:14;;;;;;;9.20;2.10;;;;;;;1.05;100.00;100287.81;104659;1273;69116;-65
2024/01/27 09:57:08;;;;;;;8.50;1.90;;;;;;;1.09;100.00;100291.52;105004;1266;204631;-68
2024/01/27 09:59:58;;;;;;;7.20;1.90;;;;;;;1.11;100.00;100296.55;104810;1264;59209;-66
2024/01/27 10:02:48;;;;;;;6.80;1.50;;;;;;;1.13;100.00;100303.99;104958;1266;59830;-64
2024/01/27 10:05:37;;;;;;;7.70;1.70;;;;;;;1.13;100.00;100306.40;105283;1266;71152;-67
2024/01/27 10:08:25;;;;;;;6.70;1.60;;;;;;;1.16;100.00;100305.42;105011;1264;69496;-67
2024/01/27 10:11:14;;;;;;;5.80;1.70;;;;;;;1.25;100.00;100311.77;105019;1264;73238;-65
2024/01/27 10:14:03;;;;;;;6.80;1.70;;;;;;;1.34;100.00;100314.27;105012;1264;59858;-68
2024/01/27 10:16:52;;;;;;;7.50;1.50;;;;;;;1.42;100.00;100312.20;105469;1257;61040;-66
2024/01/27 10:19:40;;;;;;;5.30;1.50;;;;;;;1.53;100.00;100317.25;105287;1263;73029;-66
2024/01/27 10:22:44;;;;;;;6.40;1.90;;;;;;;1.65;100.00;100329.23;105645;1260;69031;-65
2024/01/27 10:25:40;;;;;;;7.00;1.50;;;;;;;1.66;100.00;100332.33;105211;1257;74311;-66
2024/01/27 10:28:28;;;;;;;8.20;2.10;;;;;;;1.65;100.00;100336.24;105337;1257;60303;-67
2024/01/27 10:31:19;;;;;;;6.00;1.40;;;;;;;1.66;100.00;100342.66;105965;1257;59938;-64
2024/01/27 10:34:14;;;;;;;8.60;1.60;;;;;;;1.68;100.00;100349.77;105512;1257;70801;-67
2024/01/27 10:37:03;;;;;;;6.10;1.70;;;;;;;1.69;100.00;100348.48;105423;1257;68502;-68
2024/01/27 10:40:09;;;;;;;10.80;2.30;;;;;;;1.69;100.00;100367.23;105262;1257;72271;-65
2024/01/27 10:43:03;;;;;;;7.30;1.70;;;;;;;1.70;100.00;100369.29;105169;1262;59733;-65
2024/01/27 10:45:52;;;;;;;7.10;1.50;;;;;;;1.71;100.00;100371.52;105383;1259;59778;-65
2024/01/27 10:48:42;;;;;;;7.40;1.80;;;;;;;1.70;100.00;100373.48;105397;1257;71652;-67
2024/01/27 10:51:36;;;;;;;8.50;1.70;;;;;;;1.72;100.00;100384.26;105928;1257;68430;-64
2024/01/27 10:54:27;;;;;;;9.10;2.10;;;;;;;1.75;100.00;100389.75;105416;1263;73852;-63
2024/01/27 10:57:18;;;;;;;7.80;1.80;;;;;;;1.82;100.00;100393.70;105424;1258;59221;-65
2024/01/27 11:00:08;;;;;;;8.10;1.90;;;;;;;1.87;100.00;100405.43;105603;1257;60705;-64
2024/01/27 11:03:02;;;;;;;7.60;1.80;;;;;;;1.91;100.00;100404.40;105339;1257;72889;-65
2024/01/27 11:05:52;;;;;;;8.10;1.50;;;;;;;1.96;100.00;100417.70;105360;1257;66249;-65
2024/01/27 11:08:41;;;;;;;6.60;1.50;;;;;;;2.01;100.00;100424.34;105589;1257;73164;-66
2024/01/27 11:11:32;;;;;;;8.30;1.90;;;;;;;2.02;100.00;100431.82;105381;1262;59269;-65
2024/01/27 11:14:20;;;;;;;6.90;1.60;;;;;;;2.05;100.00;100432.77;105572;1262;60753;-64
2024/01/27 11:17:08;;;;;;;5.60;1.30;;;;;;;2.07;100.00;100441.96;105570;1257;72831;-67
2024/01/27 11:19:59;;;;;;;10.70;1.60;;;;;;;2.09;100.00;100438.40;105673;1257;69385;-67
2024/01/27 11:22:49;;;;;;;7.50;1.80;;;;;;;2.12;100.00;100441.96;105604;1257;72091;-66
2024/01/27 11:25:38;;;;;;;9.10;1.90;;;;;;;2.12;100.00;100449.67;105817;1259;59245;-67
2024/01/27 11:28:26;;;;;;;9.60;1.60;;;;;;;2.12;100.00;100451.94;105610;1257;59375;-65
2024/01/27 11:31:18;;;;;;;5.50;1.30;;;;;;;2.13;100.00;100465.75;105705;1253;72812;-66
2024/01/27 11:34:16;;;;;;;6.50;1.40;;;;;;;2.16;100.00;100470.16;105750;1257;69399;-66
2024/01/27 11:37:17;;;;;;;7.80;1.50;;;;;;;2.23;100.00;100472.74;105750;1257;73205;-64
2024/01/27 11:40:07;;;;;;;5.70;1.60;;;;;;;2.26;100.00;100478.07;105499;1254;59883;-69
2024/01/27 11:43:01;;;;;;;8.00;1.70;;;;;;;2.24;100.00;100488.63;105821;1254;61285;-66
2024/01/27 11:46:01;;;;;;;7.70;1.60;;;;;;;2.22;100.00;100486.92;105787;1253;72419;-65
2024/01/27 11:48:49;;;;;;;9.90;1.90;;;;;;;2.24;100.00;100497.77;105284;1254;69313;-68
2024/01/27 11:51:38;;;;;;;9.60;1.90;;;;;;;2.25;100.00;100499.28;105336;1256;73403;-70
2024/01/27 11:54:26;;;;;;;9.80;1.90;;;;;;;2.24;100.00;100502.48;104158;1254;1017600;-68
2024/01/27 11:57:15;;;;;;;8.00;2.00;;;;;;;2.22;100.00;100510.23;105845;1254;61952;-67
2024/01/27 12:00:09;;;;;;;7.50;1.90;;;;;;;2.24;100.00;100518.94;105629;1254;72904;-66
2024/01/27 12:02:57;;;;;;;7.80;1.90;;;;;;;2.24;100.00;100524.90;105574;1257;68154;-67
2024/01/27 12:05:46;;;;;;;9.30;2.10;;;;;;;2.24;100.00;100539.61;105444;1262;71339;-67
2024/01/27 12:08:37;;;;;;;9.10;2.00;;;;;;;2.27;100.00;100547.02;105539;1257;59881;-64
2024/01/27 12:11:26;;;;;;;8.60;1.80;;;;;;;2.28;100.00;100553.46;106005;1255;59979;-66
2024/01/27 12:14:15;;;;;;;7.80;1.60;;;;;;;2.31;100.00;100557.20;105632;1259;71658;-68
2024/01/27 12:17:03;;;;;;;12.00;2.50;;;;;;;2.33;100.00;100553.80;105708;1256;66769;-69
2024/01/27 12:19:56;;;;;;;8.00;1.40;;;;;;;2.43;100.00;100570.61;105535;1256;73257;-67
2024/01/27 12:22:44;;;;;;;6.50;1.50;;;;;;;2.51;100.00;100576.44;105303;1262;60362;-67
2024/01/27 12:25:34;;;;;;;9.10;1.70;;;;;;;2.62;100.00;100577.81;106095;1259;62050;-68
2024/01/27 12:28:24;;;;;;;9.60;2.00;;;;;;;3.03;100.00;100581.02;107706;1256;71469;-69
2024/01/27 12:31:12;;;;;;;11.10;1.80;;;;;;;3.37;100.00;100586.70;107456;1256;67416;-68
2024/01/27 12:34:01;;;;;;;9.20;1.90;;;;;;;3.61;100.00;100589.10;107026;1256;71865;-66
2024/01/27 12:36:51;;;;;;;9.60;1.90;;;;;;;3.87;100.00;100591.21;106189;1259;59207;-68
2024/01/27 12:39:50;;;;;;;9.30;2.00;;;;;;;4.02;100.00;100588.48;105584;1260;60728;-68
2024/01/27 12:42:39;;;;;;;7.60;1.80;;;;;;;4.25;97.81;100586.09;105492;1255;72002;-67
2024/01/27 12:45:28;;;;;;;10.90;3.90;;;;;;;4.40;98.99;100597.02;105589;1255;69136;-66
2024/01/27 12:48:18;;;;;;;8.70;2.00;;;;;;;4.50;96.78;100606.09;105430;1260;72737;-65
2024/01/27 12:51:06;;;;;;;7.90;1.60;;;;;;;4.62;94.33;100611.23;105709;1256;59276;-67
2024/01/27 12:53:55;;;;;;;7.90;1.50;;;;;;;4.53;92.55;100611.24;105471;1256;59317;-66
2024/01/27 12:56:43;;;;;;;6.20;1.30;;;;;;;4.41;91.84;100618.09;105575;1256;70750;-69
2024/01/27 12:59:31;;;;;;;7.10;1.40;;;;;;;4.15;91.90;100620.42;105583;1262;66617;-67
2024/01/27 13:02:20;;;;;;;8.40;1.40;;;;;;;4.14;93.41;100614.86;105565;1260;73033;-68
2024/01/27 13:05:09;;;;;;;6.10;1.70;;;;;;;4.29;93.95;100622.81;105460;1262;59891;-67